sensor_id;sensor_type;location;lat;lon;timestamp;temperature;humidity
41985;DHT22;28319;48.116;10.818;2023-11-18T00:01:39;4.10;99.90
41985;DHT22;28319;48.116;10.818;2023-11-18T00:06:42;4.00;99.90
41985;DHT22;28319;48.116;10.818;2023-11-18T00:11:44;4.00;99.90
41985;DHT22;28319;48.116;10.818;2023-11-18T00:16:48;4.00;99.90
41985;DHT22;28319;48.116;10.818;2023-11-18T00:21:50;4.00;99.90
41985;DHT22;28319;48.116;10.818;2023-11-18T00:26:52;4.00;99.90
41985;DHT22;28319;48.116;10.818;2023-11-18T00:31:57;4.00;99.90
41985;DHT22;28319;48.116;10.818;2023-11-18T00:36:59;4.10;99.90
41985;DHT22;28319;48.116;10.818;2023-11-18T00:42:01;4.10;99.90
41985;DHT22;28319;48.116;10.818;2023-11-18T00:47:05;4.10;99.90
41985;DHT22;28319;48.116;10.818;2023-11-18T00:52:07;4.10;99.90
41985;DHT22;28319;48.116;10.818;2023-11-18T00:57:09;4.10;99.90
41985;DHT22;28319;48.116;10.818;2023-11-18T01:02:13;4.10;99.90
41985;DHT22;28319;48.116;10.818;2023-11-18T01:07:15;4.10;99.90
41985;DHT22;28319;48.116;10.818;2023-11-18T01:12:17;4.10;99.90
41985;DHT22;28319;48.116;10.818;2023-11-18T01:17:20;4.20;99.90
41985;DHT22;28319;48.116;10.818;2023-11-18T01:22:22;4.20;99.90
41985;DHT22;28319;48.116;10.818;2023-11-18T01:27:24;4.20;99.90
41985;DHT22;28319;48.116;10.818;2023-11-18T01:32:28;4.10;99.90
41985;DHT22;28319;48.116;10.818;2023-11-18T01:37:31;4.10;99.90
41985;DHT22;28319;48.116;10.818;2023-11-18T01:42:33;4.20;99.90
41985;DHT22;28319;48.116;10.818;2023-11-18T01:47:36;4.20;99.90
41985;DHT22;28319;48.116;10.818;2023-11-18T01:52:40;4.20;99.90
41985;DHT22;28319;48.116;10.818;2023-11-18T01:57:42;4.20;99.90
41985;DHT22;28319;48.116;10.818;2023-11-18T02:02:47;4.20;99.90
41985;DHT22;28319;48.116;10.818;2023-11-18T02:07:49;4.30;99.90
41985;DHT22;28319;48.116;10.818;2023-11-18T02:12:57;4.30;99.90
41985;DHT22;28319;48.116;10.818;2023-11-18T02:18:06;4.30;99.90
41985;DHT22;28319;48.116;10.818;2023-11-18T02:23:10;4.30;99.90
41985;DHT22;28319;48.116;10.818;2023-11-18T02:28:14;4.30;99.90
41985;DHT22;28319;48.116;10.818;2023-11-18T02:33:19;4.30;99.90
41985;DHT22;28319;48.116;10.818;2023-11-18T02:38:30;4.30;99.90
41985;DHT22;28319;48.116;10.818;2023-11-18T02:43:36;4.30;99.90
41985;DHT22;28319;48.116;10.818;2023-11-18T02:48:40;4.30;99.90
41985;DHT22;28319;48.116;10.818;2023-11-18T02:53:43;4.20;99.90
41985;DHT22;28319;48.116;10.818;2023-11-18T02:58:47;4.30;99.90
41985;DHT22;28319;48.116;10.818;2023-11-18T03:03:49;4.30;99.90
41985;DHT22;28319;48.116;10.818;2023-11-18T03:08:51;4.30;99.90
41985;DHT22;28319;48.116;10.818;2023-11-18T03:13:54;4.30;99.90
41985;DHT22;28319;48.116;10.818;2023-11-18T03:18:57;4.30;99.90
41985;DHT22;28319;48.116;10.818;2023-11-18T03:23:59;4.30;99.90
41985;DHT22;28319;48.116;10.818;2023-11-18T03:29:03;4.30;99.90
41985;DHT22;28319;48.116;10.818;2023-11-18T03:34:05;4.30;99.90
41985;DHT22;28319;48.116;10.818;2023-11-18T03:39:07;4.30;99.90
41985;DHT22;28319;48.116;10.818;2023-11-18T03:44:13;4.40;99.90
41985;DHT22;28319;48.116;10.818;2023-11-18T03:49:17;4.30;99.90
41985;DHT22;28319;48.116;10.818;2023-11-18T03:54:20;4.40;99.90
41985;DHT22;28319;48.116;10.818;2023-11-18T03:59:25;4.30;99.90
41985;DHT22;28319;48.116;10.818;2023-11-18T04:04:27;4.30;99.90
41985;DHT22;28319;48.116;10.818;2023-11-18T04:09:30;4.30;99.90
41985;DHT22;28319;48.116;10.818;2023-11-18T04:14:34;4.30;99.90
41985;DHT22;28319;48.116;10.818;2023-11-18T04:19:36;4.40;99.90
41985;DHT22;28319;48.116;10.818;2023-11-18T04:24:39;4.40;99.90
41985;DHT22;28319;48.116;10.818;2023-11-18T04:29:44;4.40;99.90
41985;DHT22;28319;48.116;10.818;2023-11-18T04:34:46;4.40;99.90
41985;DHT22;28319;48.116;10.818;2023-11-18T04:39:49;4.40;99.90
41985;DHT22;28319;48.116;10.818;2023-11-18T04:44:53;4.40;99.90
41985;DHT22;28319;48.116;10.818;2023-11-18T04:49:55;4.40;99.90
41985;DHT22;28319;48.116;10.818;2023-11-18T04:54:57;4.30;99.90
41985;DHT22;28319;48.116;10.818;2023-11-18T05:00:03;4.40;99.90
41985;DHT22;28319;48.116;10.818;2023-11-18T05:05:11;4.50;99.90
41985;DHT22;28319;48.116;10.818;2023-11-18T05:10:13;4.40;99.90
41985;DHT22;28319;48.116;10.818;2023-11-18T05:15:16;4.40;99.90
41985;DHT22;28319;48.116;10.818;2023-11-18T05:20:19;4.40;99.90
41985;DHT22;28319;48.116;10.818;2023-11-18T05:25:22;4.40;99.90
41985;DHT22;28319;48.116;10.818;2023-11-18T05:30:26;4.40;99.90
41985;DHT22;28319;48.116;10.818;2023-11-18T05:35:28;4.50;99.90
41985;DHT22;28319;48.116;10.818;2023-11-18T05:40:30;4.30;99.90
41985;DHT22;28319;48.116;10.818;2023-11-18T05:45:34;4.40;99.90
41985;DHT22;28319;48.116;10.818;2023-11-18T05:50:55;4.40;99.90
41985;DHT22;28319;48.116;10.818;2023-11-18T05:55:57;4.40;99.90
41985;DHT22;28319;48.116;10.818;2023-11-18T06:01:02;4.40;99.90
41985;DHT22;28319;48.116;10.818;2023-11-18T06:06:06;3.80;99.90
41985;DHT22;28319;48.116;10.818;2023-11-18T06:11:09;4.40;99.90
41985;DHT22;28319;48.116;10.818;2023-11-18T06:16:17;4.40;99.90
41985;DHT22;28319;48.116;10.818;2023-11-18T06:21:22;4.40;99.90
41985;DHT22;28319;48.116;10.818;2023-11-18T06:26:26;4.40;99.90
41985;DHT22;28319;48.116;10.818;2023-11-18T06:31:29;4.40;99.90
41985;DHT22;28319;48.116;10.818;2023-11-18T06:36:32;4.60;99.90
41985;DHT22;28319;48.116;10.818;2023-11-18T06:41:34;4.50;99.90
41985;DHT22;28319;48.116;10.818;2023-11-18T06:46:40;4.50;99.90
41985;DHT22;28319;48.116;10.818;2023-11-18T06:51:42;4.60;99.90
41985;DHT22;28319;48.116;10.818;2023-11-18T06:56:44;4.60;99.90
41985;DHT22;28319;48.116;10.818;2023-11-18T07:01:47;4.70;99.90
41985;DHT22;28319;48.116;10.818;2023-11-18T07:06:49;4.60;99.90
41985;DHT22;28319;48.116;10.818;2023-11-18T07:11:51;4.60;99.90
41985;DHT22;28319;48.116;10.818;2023-11-18T07:16:55;4.60;99.90
41985;DHT22;28319;48.116;10.818;2023-11-18T07:21:57;4.60;99.90
41985;DHT22;28319;48.116;10.818;2023-11-18T07:26:59;4.60;99.90
41985;DHT22;28319;48.116;10.818;2023-11-18T07:32:03;4.60;99.90
41985;DHT22;28319;48.116;10.818;2023-11-18T07:37:06;4.60;99.90
41985;DHT22;28319;48.116;10.818;2023-11-18T07:42:08;4.70;99.90
41985;DHT22;28319;48.116;10.818;2023-11-18T07:47:12;4.70;99.90
41985;DHT22;28319;48.116;10.818;2023-11-18T07:52:16;4.90;99.90
41985;DHT22;28319;48.116;10.818;2023-11-18T07:57:19;4.90;99.90
41985;DHT22;28319;48.116;10.818;2023-11-18T08:02:25;4.90;99.90
41985;DHT22;28319;48.116;10.818;2023-11-18T08:07:28;4.90;99.90
41985;DHT22;28319;48.116;10.818;2023-11-18T08:12:30;4.90;99.90
41985;DHT22;28319;48.116;10.818;2023-11-18T08:17:34;5.00;99.90
41985;DHT22;28319;48.116;10.818;2023-11-18T08:22:36;4.90;99.90
41985;DHT22;28319;48.116;10.818;2023-11-18T08:27:38;5.00;99.90
41985;DHT22;28319;48.116;10.818;2023-11-18T08:32:42;5.00;99.90
41985;DHT22;28319;48.116;10.818;2023-11-18T08:37:45;5.10;99.90
41985;DHT22;28319;48.116;10.818;2023-11-18T08:42:49;5.20;99.90
41985;DHT22;28319;48.116;10.818;2023-11-18T08:47:53;5.30;99.90
41985;DHT22;28319;48.116;10.818;2023-11-18T08:52:55;5.40;99.90
41985;DHT22;28319;48.116;10.818;2023-11-18T08:57:59;5.50;99.90
41985;DHT22;28319;48.116;10.818;2023-11-18T09:03:05;5.60;99.90
41985;DHT22;28319;48.116;10.818;2023-11-18T09:08:08;5.80;99.90
41985;DHT22;28319;48.116;10.818;2023-11-18T09:13:13;5.80;99.90
41985;DHT22;28319;48.116;10.818;2023-11-18T09:18:16;6.00;99.90
41985;DHT22;28319;48.116;10.818;2023-11-18T09:23:21;5.90;99.90
41985;DHT22;28319;48.116;10.818;2023-11-18T09:28:26;5.90;99.90
41985;DHT22;28319;48.116;10.818;2023-11-18T09:33:32;6.00;99.90
41985;DHT22;28319;48.116;10.818;2023-11-18T09:38:36;6.10;99.90
41985;DHT22;28319;48.116;10.818;2023-11-18T09:43:38;6.20;99.90
41985;DHT22;28319;48.116;10.818;2023-11-18T09:48:48;6.10;99.90
41985;DHT22;28319;48.116;10.818;2023-11-18T09:53:54;6.20;99.90
41985;DHT22;28319;48.116;10.818;2023-11-18T09:59:05;6.30;99.90
41985;DHT22;28319;48.116;10.818;2023-11-18T10:04:10;6.30;99.90
41985;DHT22;28319;48.116;10.818;2023-11-18T10:09:12;6.20;99.90
41985;DHT22;28319;48.116;10.818;2023-11-18T10:14:19;6.40;99.90
41985;DHT22;28319;48.116;10.818;2023-11-18T10:19:23;6.50;99.90
41985;DHT22;28319;48.116;10.818;2023-11-18T10:24:26;6.50;99.90
41985;DHT22;28319;48.116;10.818;2023-11-18T10:29:31;7.20;99.90
41985;DHT22;28319;48.116;10.818;2023-11-18T10:34:35;6.90;99.90
41985;DHT22;28319;48.116;10.818;2023-11-18T10:39:37;6.80;99.90
41985;DHT22;28319;48.116;10.818;2023-11-18T10:44:54;6.80;99.90
41985;DHT22;28319;48.116;10.818;2023-11-18T10:49:59;6.70;99.90
41985;DHT22;28319;48.116;10.818;2023-11-18T10:55:01;6.60;99.90
41985;DHT22;28319;48.116;10.818;2023-11-18T11:00:12;6.50;99.90
41985;DHT22;28319;48.116;10.818;2023-11-18T11:05:27;6.60;99.90
41985;DHT22;28319;48.116;10.818;2023-11-18T11:10:32;7.20;99.90
41985;DHT22;28319;48.116;10.818;2023-11-18T11:15:40;7.50;99.90
41985;DHT22;28319;48.116;10.818;2023-11-18T11:20:59;7.70;99.90
41985;DHT22;28319;48.116;10.818;2023-11-18T11:26:10;7.40;99.90
41985;DHT22;28319;48.116;10.818;2023-11-18T11:31:21;7.20;99.90
41985;DHT22;28319;48.116;10.818;2023-11-18T11:36:30;7.20;99.90
41985;DHT22;28319;48.116;10.818;2023-11-18T11:41:34;7.10;99.90
41985;DHT22;28319;48.116;10.818;2023-11-18T11:46:37;7.20;99.90
41985;DHT22;28319;48.116;10.818;2023-11-18T11:51:47;7.10;99.90
41985;DHT22;28319;48.116;10.818;2023-11-18T11:56:50;7.30;99.90
41985;DHT22;28319;48.116;10.818;2023-11-18T12:01:56;7.40;99.90
41985;DHT22;28319;48.116;10.818;2023-11-18T12:07:00;7.50;99.90
41985;DHT22;28319;48.116;10.818;2023-11-18T12:12:04;7.40;99.90
41985;DHT22;28319;48.116;10.818;2023-11-18T12:17:10;7.20;99.90
41985;DHT22;28319;48.116;10.818;2023-11-18T12:22:16;7.30;99.90
41985;DHT22;28319;48.116;10.818;2023-11-18T12:27:45;7.30;99.90
41985;DHT22;28319;48.116;10.818;2023-11-18T12:32:58;7.30;99.90
41985;DHT22;28319;48.116;10.818;2023-11-18T12:38:30;7.40;99.90
41985;DHT22;28319;48.116;10.818;2023-11-18T12:43:49;7.40;99.90
41985;DHT22;28319;48.116;10.818;2023-11-18T12:49:00;7.50;99.90
41985;DHT22;28319;48.116;10.818;2023-11-18T12:54:04;7.40;99.90
41985;DHT22;28319;48.116;10.818;2023-11-18T12:59:07;7.40;99.90
41985;DHT22;28319;48.116;10.818;2023-11-18T13:04:10;7.40;99.90
41985;DHT22;28319;48.116;10.818;2023-11-18T13:09:16;7.30;99.90
41985;DHT22;28319;48.116;10.818;2023-11-18T13:14:26;7.40;99.90
41985;DHT22;28319;48.116;10.818;2023-11-18T13:19:30;7.40;99.90
41985;DHT22;28319;48.116;10.818;2023-11-18T13:24:36;7.40;99.90
41985;DHT22;28319;48.116;10.818;2023-11-18T13:29:44;7.40;99.90
41985;DHT22;28319;48.116;10.818;2023-11-18T13:34:49;7.40;99.90
41985;DHT22;28319;48.116;10.818;2023-11-18T13:39:57;7.40;99.90
41985;DHT22;28319;48.116;10.818;2023-11-18T13:45:02;7.40;99.90
41985;DHT22;28319;48.116;10.818;2023-11-18T13:50:09;7.40;99.90
41985;DHT22;28319;48.116;10.818;2023-11-18T13:55:16;7.40;99.90
41985;DHT22;28319;48.116;10.818;2023-11-18T14:00:27;7.40;99.90
41985;DHT22;28319;48.116;10.818;2023-11-18T14:05:29;7.30;99.90
41985;DHT22;28319;48.116;10.818;2023-11-18T14:10:36;7.20;99.90
41985;DHT22;28319;48.116;10.818;2023-11-18T14:15:38;7.30;99.90
41985;DHT22;28319;48.116;10.818;2023-11-18T14:20:43;7.20;99.90
41985;DHT22;28319;48.116;10.818;2023-11-18T14:25:46;7.20;99.90
41985;DHT22;28319;48.116;10.818;2023-11-18T14:30:48;7.20;99.90
41985;DHT22;28319;48.116;10.818;2023-11-18T14:35:51;7.20;99.90
41985;DHT22;28319;48.116;10.818;2023-11-18T14:40:55;7.20;99.90
41985;DHT22;28319;48.116;10.818;2023-11-18T14:45:57;7.20;99.90
41985;DHT22;28319;48.116;10.818;2023-11-18T14:50:59;7.30;99.90
41985;DHT22;28319;48.116;10.818;2023-11-18T14:56:03;7.30;99.90
41985;DHT22;28319;48.116;10.818;2023-11-18T15:01:07;7.30;99.90
41985;DHT22;28319;48.116;10.818;2023-11-18T15:06:11;7.30;99.90
41985;DHT22;28319;48.116;10.818;2023-11-18T15:11:21;7.20;99.90
41985;DHT22;28319;48.116;10.818;2023-11-18T15:16:23;7.20;99.90
41985;DHT22;28319;48.116;10.818;2023-11-18T15:21:25;7.10;99.90
41985;DHT22;28319;48.116;10.818;2023-11-18T15:26:31;7.10;99.90
41985;DHT22;28319;48.116;10.818;2023-11-18T15:31:33;7.00;99.90
41985;DHT22;28319;48.116;10.818;2023-11-18T15:36:41;6.90;99.90
41985;DHT22;28319;48.116;10.818;2023-11-18T15:41:44;6.80;99.90
41985;DHT22;28319;48.116;10.818;2023-11-18T15:46:47;6.80;99.90
41985;DHT22;28319;48.116;10.818;2023-11-18T15:51:50;6.80;99.90
41985;DHT22;28319;48.116;10.818;2023-11-18T15:56:53;6.90;99.90
41985;DHT22;28319;48.116;10.818;2023-11-18T16:01:56;6.80;99.90
41985;DHT22;28319;48.116;10.818;2023-11-18T16:06:58;6.70;99.90
41985;DHT22;28319;48.116;10.818;2023-11-18T16:12:01;6.60;99.90
41985;DHT22;28319;48.116;10.818;2023-11-18T16:17:05;6.60;99.90
41985;DHT22;28319;48.116;10.818;2023-11-18T16:22:07;6.50;99.90
41985;DHT22;28319;48.116;10.818;2023-11-18T16:27:11;6.40;99.90
41985;DHT22;28319;48.116;10.818;2023-11-18T16:32:13;6.40;99.90
41985;DHT22;28319;48.116;10.818;2023-11-18T16:37:15;6.30;99.90
41985;DHT22;28319;48.116;10.818;2023-11-18T16:42:19;6.30;99.90
41985;DHT22;28319;48.116;10.818;2023-11-18T16:47:23;6.40;99.90
41985;DHT22;28319;48.116;10.818;2023-11-18T16:52:26;6.40;99.90
41985;DHT22;28319;48.116;10.818;2023-11-18T16:57:29;6.40;99.90
41985;DHT22;28319;48.116;10.818;2023-11-18T17:02:31;6.40;99.90
41985;DHT22;28319;48.116;10.818;2023-11-18T17:07:33;6.50;99.90
41985;DHT22;28319;48.116;10.818;2023-11-18T17:12:36;6.60;99.90
41985;DHT22;28319;48.116;10.818;2023-11-18T17:17:39;6.50;99.90
41985;DHT22;28319;48.116;10.818;2023-11-18T17:22:41;6.50;99.90
41985;DHT22;28319;48.116;10.818;2023-11-18T17:27:46;6.60;99.90
41985;DHT22;28319;48.116;10.818;2023-11-18T17:32:49;6.60;99.90
41985;DHT22;28319;48.116;10.818;2023-11-18T17:37:52;6.80;99.90
41985;DHT22;28319;48.116;10.818;2023-11-18T17:42:55;6.90;99.90
41985;DHT22;28319;48.116;10.818;2023-11-18T17:47:57;6.80;99.90
41985;DHT22;28319;48.116;10.818;2023-11-18T17:53:00;6.60;99.90
41985;DHT22;28319;48.116;10.818;2023-11-18T17:58:05;6.50;99.90
41985;DHT22;28319;48.116;10.818;2023-11-18T18:03:07;6.50;99.90
41985;DHT22;28319;48.116;10.818;2023-11-18T18:08:09;6.50;99.90
41985;DHT22;28319;48.116;10.818;2023-11-18T18:13:13;6.50;99.90
41985;DHT22;28319;48.116;10.818;2023-11-18T18:18:16;6.40;99.90
41985;DHT22;28319;48.116;10.818;2023-11-18T18:23:17;6.40;99.90
41985;DHT22;28319;48.116;10.818;2023-11-18T18:28:21;6.40;99.90
41985;DHT22;28319;48.116;10.818;2023-11-18T18:33:23;6.40;99.90
41985;DHT22;28319;48.116;10.818;2023-11-18T18:38:25;6.50;99.90
41985;DHT22;28319;48.116;10.818;2023-11-18T18:43:28;6.40;99.90
41985;DHT22;28319;48.116;10.818;2023-11-18T18:48:30;6.50;99.90
41985;DHT22;28319;48.116;10.818;2023-11-18T18:53:32;6.50;99.90
41985;DHT22;28319;48.116;10.818;2023-11-18T18:58:36;6.50;99.90
41985;DHT22;28319;48.116;10.818;2023-11-18T19:03:38;6.40;99.90
41985;DHT22;28319;48.116;10.818;2023-11-18T19:08:40;6.30;99.90
41985;DHT22;28319;48.116;10.818;2023-11-18T19:13:44;6.30;99.90
41985;DHT22;28319;48.116;10.818;2023-11-18T19:18:46;6.20;99.90
41985;DHT22;28319;48.116;10.818;2023-11-18T19:23:48;6.10;99.90
41985;DHT22;28319;48.116;10.818;2023-11-18T19:28:51;6.10;99.90
41985;DHT22;28319;48.116;10.818;2023-11-18T19:33:53;6.10;99.90
41985;DHT22;28319;48.116;10.818;2023-11-18T19:38:55;6.10;99.90
41985;DHT22;28319;48.116;10.818;2023-11-18T19:44:01;6.10;99.90
41985;DHT22;28319;48.116;10.818;2023-11-18T19:49:05;6.10;99.90
41985;DHT22;28319;48.116;10.818;2023-11-18T19:54:07;6.10;99.90
41985;DHT22;28319;48.116;10.818;2023-11-18T19:59:11;6.10;99.90
41985;DHT22;28319;48.116;10.818;2023-11-18T20:04:13;6.10;99.90
41985;DHT22;28319;48.116;10.818;2023-11-18T20:09:15;6.10;99.90
41985;DHT22;28319;48.116;10.818;2023-11-18T20:14:19;6.10;99.90
41985;DHT22;28319;48.116;10.818;2023-11-18T20:19:23;6.00;99.90
41985;DHT22;28319;48.116;10.818;2023-11-18T20:24:25;6.00;99.90
41985;DHT22;28319;48.116;10.818;2023-11-18T20:29:28;5.90;99.90
41985;DHT22;28319;48.116;10.818;2023-11-18T20:34:34;5.90;99.90
41985;DHT22;28319;48.116;10.818;2023-11-18T20:39:36;5.80;99.90
41985;DHT22;28319;48.116;10.818;2023-11-18T20:44:40;5.80;99.90
41985;DHT22;28319;48.116;10.818;2023-11-18T20:49:42;5.70;99.90
41985;DHT22;28319;48.116;10.818;2023-11-18T20:54:44;5.70;99.90
41985;DHT22;28319;48.116;10.818;2023-11-18T20:59:47;5.60;99.90
41985;DHT22;28319;48.116;10.818;2023-11-18T21:04:49;5.60;99.90
41985;DHT22;28319;48.116;10.818;2023-11-18T21:09:51;5.60;99.90
41985;DHT22;28319;48.116;10.818;2023-11-18T21:14:57;5.50;99.90
41985;DHT22;28319;48.116;10.818;2023-11-18T21:20:00;5.50;99.90
41985;DHT22;28319;48.116;10.818;2023-11-18T21:25:04;5.50;99.90
41985;DHT22;28319;48.116;10.818;2023-11-18T21:30:08;5.70;99.90
41985;DHT22;28319;48.116;10.818;2023-11-18T21:35:11;5.50;99.90
41985;DHT22;28319;48.116;10.818;2023-11-18T21:40:14;5.50;99.90
41985;DHT22;28319;48.116;10.818;2023-11-18T21:45:19;5.50;99.90
41985;DHT22;28319;48.116;10.818;2023-11-18T21:50:24;5.50;99.90
41985;DHT22;28319;48.116;10.818;2023-11-18T21:55:26;5.50;99.90
41985;DHT22;28319;48.116;10.818;2023-11-18T22:00:30;5.50;99.90
41985;DHT22;28319;48.116;10.818;2023-11-18T22:05:32;5.70;99.90
41985;DHT22;28319;48.116;10.818;2023-11-18T22:10:34;5.70;99.90
41985;DHT22;28319;48.116;10.818;2023-11-18T22:15:38;5.90;99.90
41985;DHT22;28319;48.116;10.818;2023-11-18T22:20:40;6.00;99.90
41985;DHT22;28319;48.116;10.818;2023-11-18T22:25:44;6.00;99.90
41985;DHT22;28319;48.116;10.818;2023-11-18T22:30:50;6.00;99.90
41985;DHT22;28319;48.116;10.818;2023-11-18T22:35:52;5.90;99.90
41985;DHT22;28319;48.116;10.818;2023-11-18T22:40:54;6.00;99.90
41985;DHT22;28319;48.116;10.818;2023-11-18T22:45:58;6.10;99.90
41985;DHT22;28319;48.116;10.818;2023-11-18T22:51:00;6.10;99.90
41985;DHT22;28319;48.116;10.818;2023-11-18T22:56:02;6.10;99.90
41985;DHT22;28319;48.116;10.818;2023-11-18T23:01:06;6.10;99.90
41985;DHT22;28319;48.116;10.818;2023-11-18T23:06:11;6.20;99.90
41985;DHT22;28319;48.116;10.818;2023-11-18T23:11:20;6.20;99.90
41985;DHT22;28319;48.116;10.818;2023-11-18T23:16:24;6.30;99.90
41985;DHT22;28319;48.116;10.818;2023-11-18T23:21:27;6.30;99.90
41985;DHT22;28319;48.116;10.818;2023-11-18T23:26:29;6.30;99.90
41985;DHT22;28319;48.116;10.818;2023-11-18T23:31:33;6.40;99.90
41985;DHT22;28319;48.116;10.818;2023-11-18T23:36:35;6.40;99.90
41985;DHT22;28319;48.116;10.818;2023-11-18T23:41:39;6.40;99.90
41985;DHT22;28319;48.116;10.818;2023-11-18T23:46:42;6.40;99.90
41985;DHT22;28319;48.116;10.818;2023-11-18T23:51:45;6.50;99.90
41985;DHT22;28319;48.116;10.818;2023-11-18T23:56:47;6.50;99.90
